Time;durP1;ratioP1;P1;durP2;ratioP2;P2;SDS_P1;SDS_P2;PMS_P1;PMS_P2;Temp;Humidity;BMP_temperature;BMP_pressure;BME280_temperature;BME280_humidity;BME280_pressure;Samples;Min_cycle;Max_cycle;Signal;HPM_P1;HPM_P2
2022/01/30 00:00:49;;;;;;;4.40;1.30;;;;;;;;;;5113824;28;20047;-71
2022/01/30 00:03:16;;;;;;;3.37;0.90;;;;;;;;;;5109284;28;20035;-71
2022/01/30 00:05:43;;;;;;;1.40;0.60;;;;;;;;;;5109173;28;20039;-71
2022/01/30 00:08:10;;;;;;;0.97;0.50;;;;;;;;;;5108664;28;20063;-71
2022/01/30 00:10:39;;;;;;;6.10;0.87;;;;;;;;;;5109014;28;20016;-71
2022/01/30 00:13:10;;;;;;;2.00;0.80;;;;;;;;;;5114158;28;20386;-71
2022/01/30 00:15:44;;;;;;;1.73;0.60;;;;;;;;;;5114088;28;20035;-71
2022/01/30 00:18:24;;;;;;;1.05;0.55;;;;;;;;;;5114144;28;20016;-71
2022/01/30 00:21:17;;;;;;;1.83;0.40;;;;;;;;;;5114172;28;20079;-71
2022/01/30 00:23:55;;;;;;;1.20;0.37;;;;;;;;;;5111755;28;20467;-71
2022/01/30 00:26:27;;;;;;;0.20;0.20;;;;;;;;;;5108048;28;20107;-71
2022/01/30 00:28:54;;;;;;;0.53;0.23;;;;;;;;;;5108814;28;20564;-70
2022/01/30 00:31:23;;;;;;;0.83;0.30;;;;;;;;;;5108746;28;20028;-71
2022/01/30 00:33:50;;;;;;;0.53;0.33;;;;;;;;;;5110485;28;20062;-71
2022/01/30 00:36:17;;;;;;;0.20;0.20;;;;;;;;;;5113817;28;20047;-72
2022/01/30 00:38:43;;;;;;;0.43;0.30;;;;;;;;;;5113295;28;20024;-75
2022/01/30 00:41:10;;;;;;;1.23;0.37;;;;;;;;;;5112843;28;20027;-75
2022/01/30 00:43:37;;;;;;;0.27;0.10;;;;;;;;;;5113478;28;20039;-74
2022/01/30 00:46:03;;;;;;;2.77;0.27;;;;;;;;;;5111383;28;20023;-71
2022/01/30 00:48:30;;;;;;;1.03;0.40;;;;;;;;;;5108502;28;20023;-71
2022/01/30 00:50:57;;;;;;;0.47;0.30;;;;;;;;;;5108480;28;20466;-70
2022/01/30 00:53:25;;;;;;;3.37;1.10;;;;;;;;;;5108381;28;20466;-71
2022/01/30 00:55:51;;;;;;;0.90;0.40;;;;;;;;;;5109354;28;20023;-71
2022/01/30 00:58:18;;;;;;;0.93;0.40;;;;;;;;;;5112978;28;20054;-71
2022/01/30 01:00:45;;;;;;;3.50;0.53;;;;;;;;;;5113449;28;20465;-71
2022/01/30 01:03:12;;;;;;;0.67;0.30;;;;;;;;;;5113216;28;20104;-71
2022/01/30 01:05:39;;;;;;;4.97;0.50;;;;;;;;;;5113325;28;20035;-71
2022/01/30 01:08:15;;;;;;;4.20;0.60;;;;;;;;;;5111080;28;20035;-71
2022/01/30 01:10:51;;;;;;;7.23;0.40;;;;;;;;;;5107859;28;20028;-71
2022/01/30 01:24:00;;;;;;;1.50;0.60;;;;;;;;;;5113044;28;20028;-71
2022/01/30 01:26:27;;;;;;;1.70;0.70;;;;;;;;;;5112955;28;20531;-71
2022/01/30 01:28:54;;;;;;;2.17;0.60;;;;;;;;;;5112923;28;20103;-71
2022/01/30 01:31:22;;;;;;;1.13;0.63;;;;;;;;;;5108476;28;20486;-71
2022/01/30 01:36:28;;;;;;;4.93;0.80;;;;;;;;;;5107805;28;20545;-71
2022/01/30 01:38:55;;;;;;;3.10;0.87;;;;;;;;;;5107806;28;20043;-71
2022/01/30 01:41:24;;;;;;;4.87;1.17;;;;;;;;;;5111206;28;20035;-71
2022/01/30 01:43:51;;;;;;;3.17;0.90;;;;;;;;;;5112223;28;20035;-71
2022/01/30 01:46:23;;;;;;;2.17;0.70;;;;;;;;;;5112593;28;20023;-71
2022/01/30 01:48:52;;;;;;;14.10;0.90;;;;;;;;;;5112603;28;20020;-71
2022/01/30 01:51:23;;;;;;;3.63;1.23;;;;;;;;;;5112220;28;20509;-71
2022/01/30 01:53:51;;;;;;;1.77;0.60;;;;;;;;;;5108178;28;20027;-71
2022/01/30 01:56:18;;;;;;;2.80;0.70;;;;;;;;;;5107305;28;20020;-70
2022/01/30 01:58:45;;;;;;;4.23;1.00;;;;;;;;;;5107391;28;20024;-70
2022/01/30 02:01:12;;;;;;;2.67;0.50;;;;;;;;;;5107528;28;20028;-70
2022/01/30 02:03:39;;;;;;;2.90;0.70;;;;;;;;;;5111253;28;20485;-70
2022/01/30 02:06:10;;;;;;;1.33;0.70;;;;;;;;;;5112426;28;20030;-71
2022/01/30 02:08:52;;;;;;;1.30;0.60;;;;;;;;;;5112412;28;20524;-69
2022/01/30 02:11:32;;;;;;;4.20;1.47;;;;;;;;;;5112722;28;20024;-73
2022/01/30 02:14:23;;;;;;;8.97;1.20;;;;;;;;;;5112354;28;20080;-70
2022/01/30 02:27:56;;;;;;;2.47;0.70;;;;;;;;;;5116183;28;20066;-70
2022/01/30 02:30:28;;;;;;;2.33;0.70;;;;;;;;;;5116206;28;20012;-70
2022/01/30 02:32:56;;;;;;;2.30;0.80;;;;;;;;;;5116092;28;20026;-70
2022/01/30 02:35:23;;;;;;;6.17;1.07;;;;;;;;;;5116178;28;20106;-70
2022/01/30 02:37:53;;;;;;;3.23;0.80;;;;;;;;;;5112372;28;20047;-70
2022/01/30 02:40:19;;;;;;;2.20;1.10;;;;;;;;;;5110732;28;20027;-70
2022/01/30 02:42:50;;;;;;;3.13;1.00;;;;;;;;;;5110798;28;20113;-70
2022/01/30 02:45:18;;;;;;;7.67;1.00;;;;;;;;;;5110403;28;20482;-70
2022/01/30 02:47:59;;;;;;;2.60;1.20;;;;;;;;;;5113496;28;20030;-70
2022/01/30 02:50:39;;;;;;;3.87;0.90;;;;;;;;;;5115879;28;20088;-70
2022/01/30 02:53:09;;;;;;;3.43;1.07;;;;;;;;;;5115531;28;20030;-70
2022/01/30 02:55:36;;;;;;;3.27;1.20;;;;;;;;;;5115543;28;20572;-70
2022/01/30 02:58:03;;;;;;;10.13;1.57;;;;;;;;;;5115537;28;20076;-70
2022/01/30 03:00:30;;;;;;;3.70;1.40;;;;;;;;;;5111058;28;20023;-71
2022/01/30 03:02:57;;;;;;;5.93;2.17;;;;;;;;;;5110476;28;20116;-71
2022/01/30 03:05:23;;;;;;;3.27;1.13;;;;;;;;;;5110497;28;20027;-70
2022/01/30 03:07:52;;;;;;;4.43;1.40;;;;;;;;;;5110059;28;20032;-70
2022/01/30 03:10:18;;;;;;;3.57;1.10;;;;;;;;;;5113942;28;20031;-70
2022/01/30 03:12:45;;;;;;;4.23;1.60;;;;;;;;;;5114506;28;20488;-71
2022/01/30 03:15:12;;;;;;;7.53;1.40;;;;;;;;;;5115229;28;20024;-70
2022/01/30 03:17:40;;;;;;;3.43;1.60;;;;;;;;;;5115322;28;20048;-71
2022/01/30 03:20:07;;;;;;;2.20;1.00;;;;;;;;;;5115351;28;20020;-71
2022/01/30 03:22:34;;;;;;;3.43;1.27;;;;;;;;;;5110622;28;20035;-70
2022/01/30 03:25:01;;;;;;;4.97;1.10;;;;;;;;;;5110175;28;20016;-70
2022/01/30 03:27:29;;;;;;;4.47;1.30;;;;;;;;;;5109482;28;20862;-70
2022/01/30 03:30:04;;;;;;;4.10;1.47;;;;;;;;;;5109908;28;20539;-70
2022/01/30 03:32:30;;;;;;;3.80;1.48;;;;;;;;;;5113200;28;20031;-70
2022/01/30 03:34:57;;;;;;;2.57;0.97;;;;;;;;;;5115619;28;20378;-70
2022/01/30 03:37:24;;;;;;;1.87;0.60;;;;;;;;;;5114922;28;20026;-71
2022/01/30 03:39:51;;;;;;;1.53;0.87;;;;;;;;;;5114924;28;20395;-70
2022/01/30 03:42:17;;;;;;;2.20;0.97;;;;;;;;;;5113903;28;20097;-70
2022/01/30 03:44:44;;;;;;;2.60;0.60;;;;;;;;;;5110039;28;20478;-70
2022/01/30 03:47:11;;;;;;;3.77;0.70;;;;;;;;;;5109572;28;20015;-71
2022/01/30 03:49:39;;;;;;;4.43;1.00;;;;;;;;;;5109487;28;20023;-70
2022/01/30 03:52:06;;;;;;;2.30;0.80;;;;;;;;;;5109603;28;20420;-70
2022/01/30 03:54:33;;;;;;;1.73;0.70;;;;;;;;;;5112717;28;20156;-70
2022/01/30 03:57:00;;;;;;;3.93;0.90;;;;;;;;;;5114495;28;20027;-70
2022/01/30 03:59:27;;;;;;;1.13;0.60;;;;;;;;;;5114388;28;20076;-70
2022/01/30 04:01:53;;;;;;;2.03;0.83;;;;;;;;;;5114351;28;20036;-70
2022/01/30 04:04:20;;;;;;;0.67;0.43;;;;;;;;;;5114138;28;20112;-70
2022/01/30 04:06:47;;;;;;;2.27;0.67;;;;;;;;;;5110114;28;20027;-70
2022/01/30 04:09:14;;;;;;;2.27;0.67;;;;;;;;;;5109316;28;20088;-70
2022/01/30 04:11:40;;;;;;;2.57;0.90;;;;;;;;;;5109054;28;20042;-70
2022/01/30 04:14:07;;;;;;;2.97;1.10;;;;;;;;;;5108897;28;20084;-70
2022/01/30 04:16:34;;;;;;;3.67;1.00;;;;;;;;;;5111980;28;20390;-70
2022/01/30 04:19:01;;;;;;;1.13;0.60;;;;;;;;;;5114209;28;20035;-70
2022/01/30 04:21:28;;;;;;;6.17;1.20;;;;;;;;;;5114028;28;20038;-70
2022/01/30 04:23:54;;;;;;;4.80;0.80;;;;;;;;;;5113947;28;20036;-70
2022/01/30 04:26:21;;;;;;;5.63;1.10;;;;;;;;;;5113593;28;20028;-70
2022/01/30 04:28:48;;;;;;;0.90;0.60;;;;;;;;;;5110532;28;20031;-70
2022/01/30 04:31:15;;;;;;;2.17;0.80;;;;;;;;;;5108365;28;20046;-69
2022/01/30 04:33:41;;;;;;;2.60;1.10;;;;;;;;;;5108875;28;20264;-70
2022/01/30 04:36:12;;;;;;;2.70;1.10;;;;;;;;;;5108590;28;20030;-70
2022/01/30 04:41:51;;;;;;;2.50;1.07;;;;;;;;;;5080903;28;20261;-70
2022/01/30 05:03:32;;;;;;;7.15;1.40;;;;;;;;;;5113002;28;20329;-70
2022/01/30 05:06:05;;;;;;;2.50;1.00;;;;;;;;;;5113295;28;20027;-70
2022/01/30 05:08:32;;;;;;;4.43;0.90;;;;;;;;;;5113053;28;20252;-69
2022/01/30 05:11:01;;;;;;;4.60;1.10;;;;;;;;;;5113108;28;20260;-69
2022/01/30 05:13:31;;;;;;;8.77;2.20;;;;;;;;;;5108983;28;20287;-67
2022/01/30 05:15:58;;;;;;;2.97;1.10;;;;;;;;;;5107777;28;20302;-72
2022/01/30 05:18:25;;;;;;;4.83;1.00;;;;;;;;;;5107624;28;20271;-68
2022/01/30 05:20:52;;;;;;;5.67;0.90;;;;;;;;;;5107334;28;20267;-69
2022/01/30 05:23:20;;;;;;;3.93;1.10;;;;;;;;;;5111031;28;20286;-66
2022/01/30 05:25:51;;;;;;;4.23;1.10;;;;;;;;;;5094907;28;20725;-68
2022/01/30 05:28:19;;;;;;;1.60;0.90;;;;;;;;;;5112560;28;20619;-68
2022/01/30 05:30:46;;;;;;;1.80;0.80;;;;;;;;;;5111970;28;20268;-68
2022/01/30 05:33:13;;;;;;;1.03;0.63;;;;;;;;;;5112736;28;20612;-68
2022/01/30 05:35:40;;;;;;;5.93;2.13;;;;;;;;;;5108486;28;20272;-68
2022/01/30 05:38:07;;;;;;;2.50;0.97;;;;;;;;;;5107353;28;20262;-68
2022/01/30 05:40:37;;;;;;;2.23;0.90;;;;;;;;;;5107617;28;20270;-68
2022/01/30 05:43:05;;;;;;;1.90;0.70;;;;;;;;;;5107037;28;20284;-68
2022/01/30 05:45:37;;;;;;;1.93;0.90;;;;;;;;;;5110390;28;20313;-68
2022/01/30 05:48:10;;;;;;;1.93;0.93;;;;;;;;;;5111993;28;20299;-68
2022/01/30 05:50:37;;;;;;;3.80;0.90;;;;;;;;;;5112026;28;20669;-68
2022/01/30 05:53:04;;;;;;;2.60;0.93;;;;;;;;;;5112144;28;20248;-68
2022/01/30 05:55:31;;;;;;;4.50;0.70;;;;;;;;;;5115475;28;20326;-67
2022/01/30 05:57:58;;;;;;;1.77;1.00;;;;;;;;;;5112326;28;20267;-68
2022/01/30 06:00:25;;;;;;;2.03;0.70;;;;;;;;;;5111196;28;20278;-68
2022/01/30 06:02:52;;;;;;;2.83;0.93;;;;;;;;;;5110932;28;20321;-68
2022/01/30 06:05:21;;;;;;;2.43;1.00;;;;;;;;;;5111069;28;20670;-67
2022/01/30 06:07:54;;;;;;;10.00;1.03;;;;;;;;;;5114008;28;20430;-67
2022/01/30 06:10:25;;;;;;;1.83;0.77;;;;;;;;;;5115760;28;20282;-67
2022/01/30 06:12:52;;;;;;;4.20;0.80;;;;;;;;;;5116534;28;20351;-68
2022/01/30 06:15:19;;;;;;;4.87;0.63;;;;;;;;;;5115898;28;20267;-68
2022/01/30 06:17:46;;;;;;;3.13;0.90;;;;;;;;;;5116113;28;20627;-67
2022/01/30 06:20:13;;;;;;;0.87;0.50;;;;;;;;;;5111887;28;20264;-68
2022/01/30 06:22:40;;;;;;;4.70;0.73;;;;;;;;;;5110598;28;20295;-68
2022/01/30 06:25:07;;;;;;;2.83;0.70;;;;;;;;;;5110412;28;20271;-67
2022/01/30 06:27:34;;;;;;;0.73;0.50;;;;;;;;;;5110867;28;20252;-67
2022/01/30 06:30:01;;;;;;;1.40;0.63;;;;;;;;;;5113595;28;20268;-67
2022/01/30 06:32:28;;;;;;;1.47;0.90;;;;;;;;;;5115832;28;20319;-67
2022/01/30 06:34:54;;;;;;;1.83;0.67;;;;;;;;;;5115623;28;20823;-68
2022/01/30 06:37:21;;;;;;;2.83;0.77;;;;;;;;;;5115891;28;20275;-67
2022/01/30 06:39:48;;;;;;;3.23;0.67;;;;;;;;;;5115210;28;20260;-67
2022/01/30 06:42:15;;;;;;;0.87;0.40;;;;;;;;;;5111818;28;20321;-68
2022/01/30 06:44:43;;;;;;;2.23;1.00;;;;;;;;;;5110025;28;20373;-68
2022/01/30 06:47:10;;;;;;;1.10;0.60;;;;;;;;;;5110081;28;20291;-67
2022/01/30 06:49:37;;;;;;;1.23;0.50;;;;;;;;;;5110413;28;20271;-68
2022/01/30 06:52:03;;;;;;;7.20;0.87;;;;;;;;;;5112899;28;20260;-67
2022/01/30 06:54:30;;;;;;;1.60;0.60;;;;;;;;;;5114969;28;20264;-68
2022/01/30 06:56:57;;;;;;;1.17;0.50;;;;;;;;;;5115130;28;20263;-67
2022/01/30 06:59:23;;;;;;;1.10;0.60;;;;;;;;;;5115343;28;20325;-67
2022/01/30 07:01:52;;;;;;;1.50;0.60;;;;;;;;;;5115379;28;20286;-67
2022/01/30 07:04:19;;;;;;;1.23;0.50;;;;;;;;;;5111446;28;20268;-67
2022/01/30 07:06:46;;;;;;;1.63;0.50;;;;;;;;;;5109123;28;20268;-67
2022/01/30 07:09:13;;;;;;;0.93;0.50;;;;;;;;;;5109982;28;20317;-67
2022/01/30 07:11:39;;;;;;;1.30;0.60;;;;;;;;;;5109400;28;20812;-67
2022/01/30 07:14:06;;;;;;;2.03;0.73;;;;;;;;;;5112211;28;20606;-68
2022/01/30 07:16:33;;;;;;;1.30;0.53;;;;;;;;;;5115152;28;20266;-67
2022/01/30 07:19:00;;;;;;;3.73;0.80;;;;;;;;;;5114878;28;20264;-67
2022/01/30 07:21:26;;;;;;;1.97;0.63;;;;;;;;;;5114843;28;20264;-67
2022/01/30 07:23:53;;;;;;;1.70;0.60;;;;;;;;;;5115130;28;20255;-67
2022/01/30 07:26:20;;;;;;;1.30;0.50;;;;;;;;;;5111633;28;20306;-68
2022/01/30 07:28:47;;;;;;;1.00;0.50;;;;;;;;;;5089104;28;20268;-67
2022/01/30 07:31:13;;;;;;;0.93;0.50;;;;;;;;;;5100481;28;20260;-67
2022/01/30 07:33:40;;;;;;;1.90;0.70;;;;;;;;;;5109638;28;20339;-67
2022/01/30 07:36:08;;;;;;;0.90;0.40;;;;;;;;;;5111844;28;20270;-67
2022/01/30 07:38:35;;;;;;;0.67;0.50;;;;;;;;;;5114323;28;20264;-67
2022/01/30 07:41:02;;;;;;;0.87;0.50;;;;;;;;;;5114575;28;20289;-67
2022/01/30 07:43:30;;;;;;;2.63;0.50;;;;;;;;;;5114011;28;20353;-68
2022/01/30 07:45:57;;;;;;;1.73;0.40;;;;;;;;;;5114352;28;20268;-67
2022/01/30 07:48:24;;;;;;;2.23;0.90;;;;;;;;;;5111137;28;20275;-67
2022/01/30 07:50:51;;;;;;;1.90;0.50;;;;;;;;;;5108966;28;20275;-67
2022/01/30 07:53:17;;;;;;;3.40;0.50;;;;;;;;;;5108874;28;20275;-67
2022/01/30 07:55:44;;;;;;;1.20;0.57;;;;;;;;;;5108911;28;20325;-67
2022/01/30 07:58:12;;;;;;;0.83;0.30;;;;;;;;;;5111029;28;20270;-67
2022/01/30 08:00:41;;;;;;;1.53;0.50;;;;;;;;;;5114027;28;20649;-66
2022/01/30 08:03:07;;;;;;;0.80;0.60;;;;;;;;;;5113841;28;20291;-67
2022/01/30 08:05:34;;;;;;;2.13;0.53;;;;;;;;;;5113625;28;20272;-66
2022/01/30 08:08:01;;;;;;;1.80;0.50;;;;;;;;;;5113886;28;20276;-67
2022/01/30 08:10:27;;;;;;;1.40;0.40;;;;;;;;;;5110707;28;20814;-66
2022/01/30 08:12:54;;;;;;;1.10;0.60;;;;;;;;;;5108643;28;20664;-66
2022/01/30 08:15:21;;;;;;;1.17;0.50;;;;;;;;;;5108163;28;20271;-67
2022/01/30 08:17:48;;;;;;;3.83;0.60;;;;;;;;;;5108446;28;20702;-67
2022/01/30 08:20:15;;;;;;;2.13;0.60;;;;;;;;;;5110467;28;20264;-66
2022/01/30 08:22:52;;;;;;;1.23;0.40;;;;;;;;;;5113530;28;20367;-66
2022/01/30 08:25:20;;;;;;;0.73;0.40;;;;;;;;;;5113438;28;20750;-67
2022/01/30 08:27:47;;;;;;;2.03;0.57;;;;;;;;;;5113162;28;20688;-66
2022/01/30 08:30:14;;;;;;;1.13;0.50;;;;;;;;;;5113596;28;20734;-67
2022/01/30 08:32:45;;;;;;;1.10;0.70;;;;;;;;;;5111064;28;20272;-66
2022/01/30 08:35:13;;;;;;;2.03;0.83;;;;;;;;;;5108103;28;20294;-66
2022/01/30 08:37:40;;;;;;;2.73;0.50;;;;;;;;;;5108002;28;20267;-67
2022/01/30 08:40:09;;;;;;;1.30;0.60;;;;;;;;;;5107685;28;20280;-67
2022/01/30 08:42:36;;;;;;;1.70;0.80;;;;;;;;;;5110422;28;20295;-67
2022/01/30 08:45:04;;;;;;;1.57;0.90;;;;;;;;;;5113302;28;20291;-66
2022/01/30 08:47:30;;;;;;;1.40;0.80;;;;;;;;;;5112832;28;20734;-68
2022/01/30 08:49:57;;;;;;;2.43;1.13;;;;;;;;;;5113453;28;20296;-66
2022/01/30 08:52:24;;;;;;;2.53;0.80;;;;;;;;;;5113029;28;20324;-67
2022/01/30 08:54:51;;;;;;;1.07;0.70;;;;;;;;;;5110018;28;20272;-66
2022/01/30 08:57:18;;;;;;;1.87;0.90;;;;;;;;;;5107351;28;20316;-66
2022/01/30 08:59:45;;;;;;;4.50;0.60;;;;;;;;;;5107675;28;20296;-67
2022/01/30 09:02:12;;;;;;;0.37;0.30;;;;;;;;;;5107697;28;20294;-67
2022/01/30 09:04:39;;;;;;;1.63;0.70;;;;;;;;;;5110000;28;20299;-67
2022/01/30 09:07:06;;;;;;;2.80;1.53;;;;;;;;;;5112765;28;20664;-66
2022/01/30 09:09:32;;;;;;;1.00;0.67;;;;;;;;;;5112661;28;20268;-67
2022/01/30 09:11:59;;;;;;;2.70;0.60;;;;;;;;;;5112335;28;20276;-66
2022/01/30 09:14:26;;;;;;;5.27;0.97;;;;;;;;;;5112805;28;20266;-66
2022/01/30 09:16:53;;;;;;;0.87;0.60;;;;;;;;;;5110193;28;20758;-67
2022/01/30 09:19:20;;;;;;;2.40;0.90;;;;;;;;;;5107308;28;20276;-67
2022/01/30 09:21:47;;;;;;;3.97;0.90;;;;;;;;;;5107333;28;20287;-67
2022/01/30 09:24:14;;;;;;;2.93;0.77;;;;;;;;;;5107527;28;20262;-66
2022/01/30 09:26:41;;;;;;;2.10;0.97;;;;;;;;;;5108791;28;20259;-66
2022/01/30 09:29:08;;;;;;;3.73;0.90;;;;;;;;;;5111970;28;20618;-66
2022/01/30 09:31:35;;;;;;;2.73;0.83;;;;;;;;;;5112511;28;20778;-67
2022/01/30 09:34:01;;;;;;;1.90;0.93;;;;;;;;;;5112465;28;20324;-66
2022/01/30 09:36:28;;;;;;;1.27;0.70;;;;;;;;;;5112450;28;20741;-66
2022/01/30 09:38:55;;;;;;;1.40;0.73;;;;;;;;;;5109948;28;20627;-66
2022/01/30 09:41:22;;;;;;;1.37;0.80;;;;;;;;;;5106994;28;20289;-67
2022/01/30 09:43:50;;;;;;;1.37;1.13;;;;;;;;;;5106908;28;20286;-66
2022/01/30 09:46:17;;;;;;;1.40;0.60;;;;;;;;;;5106932;28;20975;-67
2022/01/30 09:48:44;;;;;;;1.33;0.73;;;;;;;;;;5108721;28;20299;-66
2022/01/30 09:51:11;;;;;;;2.73;0.73;;;;;;;;;;5112196;28;20599;-66
2022/01/30 09:53:38;;;;;;;1.77;0.90;;;;;;;;;;5112021;28;20264;-66
2022/01/30 09:56:06;;;;;;;1.77;0.80;;;;;;;;;;5112468;28;20355;-66
2022/01/30 09:58:33;;;;;;;0.80;0.60;;;;;;;;;;5111681;28;20280;-67
2022/01/30 10:01:00;;;;;;;0.63;0.57;;;;;;;;;;5110321;28;20264;-66
2022/01/30 10:03:27;;;;;;;1.20;0.70;;;;;;;;;;5106386;28;20295;-66
2022/01/30 10:06:06;;;;;;;1.67;0.90;;;;;;;;;;5107153;28;20272;-67
2022/01/30 10:08:40;;;;;;;3.57;1.40;;;;;;;;;;5107250;28;21049;-66
2022/01/30 10:11:27;;;;;;;2.00;0.80;;;;;;;;;;5109275;28;20280;-66
2022/01/30 10:14:04;;;;;;;1.13;0.50;;;;;;;;;;5112364;28;20020;-66
2022/01/30 10:16:34;;;;;;;3.20;1.17;;;;;;;;;;5112169;28;20272;-67
2022/01/30 10:19:07;;;;;;;1.23;0.70;;;;;;;;;;5112150;28;20318;-66
2022/01/30 10:21:34;;;;;;;1.03;0.73;;;;;;;;;;5112030;28;20278;-66
2022/01/30 10:24:01;;;;;;;0.73;0.47;;;;;;;;;;5107947;28;20378;-66
2022/01/30 10:26:31;;;;;;;2.10;1.00;;;;;;;;;;5107158;28;20256;-66
2022/01/30 10:28:57;;;;;;;1.53;0.80;;;;;;;;;;5106660;28;20276;-66
2022/01/30 10:31:24;;;;;;;1.60;0.90;;;;;;;;;;5105947;28;20272;-66
2022/01/30 10:33:52;;;;;;;1.33;0.63;;;;;;;;;;5110144;28;20347;-66
2022/01/30 10:36:22;;;;;;;1.83;0.90;;;;;;;;;;5112060;28;20306;-66
2022/01/30 10:38:59;;;;;;;0.93;0.70;;;;;;;;;;5111798;28;20260;-67
2022/01/30 10:41:34;;;;;;;1.33;0.80;;;;;;;;;;5113230;28;20272;-66
2022/01/30 10:44:05;;;;;;;2.70;1.20;;;;;;;;;;5115540;28;20264;-66
2022/01/30 10:46:33;;;;;;;5.03;1.33;;;;;;;;;;5110573;28;20358;-66
2022/01/30 10:49:01;;;;;;;2.00;0.73;;;;;;;;;;5110205;28;20272;-66
2022/01/30 10:51:29;;;;;;;1.13;0.67;;;;;;;;;;5110241;28;20280;-66
2022/01/30 10:53:57;;;;;;;3.37;0.70;;;;;;;;;;5109845;28;20280;-66
2022/01/30 10:56:26;;;;;;;1.20;0.63;;;;;;;;;;5114215;28;20256;-66
2022/01/30 10:59:10;;;;;;;4.47;0.90;;;;;;;;;;5115077;28;20895;-66
2022/01/30 11:01:38;;;;;;;1.10;0.80;;;;;;;;;;5115103;28;20619;-66
2022/01/30 11:04:05;;;;;;;1.93;0.93;;;;;;;;;;5115074;28;20260;-66
2022/01/30 11:06:37;;;;;;;1.97;0.90;;;;;;;;;;5114698;28;20272;-66
2022/01/30 11:09:08;;;;;;;1.23;1.13;;;;;;;;;;5109704;28;20268;-67
2022/01/30 11:11:41;;;;;;;1.47;0.60;;;;;;;;;;5109545;28;20264;-66
2022/01/30 11:19:21;;;;;;;1.40;0.85;;;;;;;;;;5115209;28;20287;-66
2022/01/30 11:21:58;;;;;;;2.27;1.20;;;;;;;;;;5115012;28;20039;-66
2022/01/30 11:24:26;;;;;;;2.50;1.00;;;;;;;;;;5114715;28;20268;-66
2022/01/30 11:26:53;;;;;;;1.00;0.70;;;;;;;;;;5115008;28;20681;-66
2022/01/30 11:29:20;;;;;;;3.80;0.60;;;;;;;;;;5112735;28;20347;-66
2022/01/30 11:31:48;;;;;;;0.83;0.60;;;;;;;;;;5109235;28;20342;-66
2022/01/30 11:34:15;;;;;;;1.23;0.90;;;;;;;;;;5109397;28;20276;-66
2022/01/30 11:36:43;;;;;;;1.67;0.87;;;;;;;;;;5109327;28;20275;-66
2022/01/30 11:39:10;;;;;;;1.70;0.80;;;;;;;;;;5110610;28;20264;-66
2022/01/30 11:41:37;;;;;;;0.93;0.70;;;;;;;;;;5114464;28;20271;-65
2022/01/30 11:44:19;;;;;;;3.60;0.97;;;;;;;;;;5114055;28;20297;-66
2022/01/30 11:46:58;;;;;;;2.70;0.93;;;;;;;;;;5114121;28;20284;-67
2022/01/30 11:49:43;;;;;;;1.80;0.97;;;;;;;;;;5114201;28;20284;-66
2022/01/30 11:52:11;;;;;;;2.10;1.10;;;;;;;;;;5110882;28;20441;-65
2022/01/30 11:54:39;;;;;;;3.03;1.23;;;;;;;;;;5108718;28;20031;-66
2022/01/30 11:57:25;;;;;;;3.53;1.60;;;;;;;;;;5109108;28;20260;-66
2022/01/30 11:59:53;;;;;;;3.07;1.30;;;;;;;;;;5071684;28;20822;-66
2022/01/30 12:02:24;;;;;;;2.77;1.17;;;;;;;;;;5110374;28;20280;-66
2022/01/30 12:04:54;;;;;;;1.70;1.00;;;;;;;;;;5114790;28;20754;-66
2022/01/30 12:07:37;;;;;;;2.97;1.60;;;;;;;;;;5114109;28;20272;-66
2022/01/30 12:10:16;;;;;;;3.37;1.40;;;;;;;;;;5114097;28;20264;-65
2022/01/30 12:12:50;;;;;;;4.53;1.07;;;;;;;;;;5113894;28;20276;-66
2022/01/30 12:15:35;;;;;;;2.77;1.60;;;;;;;;;;5108509;28;20610;-66
2022/01/30 12:18:03;;;;;;;4.32;1.80;;;;;;;;;;5108453;28;20267;-67
2022/01/30 12:20:31;;;;;;;4.80;1.73;;;;;;;;;;5107962;28;20105;-66
2022/01/30 12:22:58;;;;;;;4.90;2.20;;;;;;;;;;5108426;28;20287;-66
2022/01/30 12:25:31;;;;;;;5.50;2.20;;;;;;;;;;5113759;28;20895;-66
2022/01/30 12:28:02;;;;;;;4.73;2.10;;;;;;;;;;5113672;28;20260;-66
2022/01/30 12:30:31;;;;;;;6.87;3.07;;;;;;;;;;5113284;28;20264;-66
2022/01/30 12:32:58;;;;;;;3.10;1.87;;;;;;;;;;5113060;28;20364;-65
2022/01/30 12:35:25;;;;;;;2.87;1.10;;;;;;;;;;5112644;28;20260;-65
2022/01/30 12:37:51;;;;;;;1.93;1.10;;;;;;;;;;5107917;28;20313;-66
2022/01/30 12:40:19;;;;;;;4.67;1.40;;;;;;;;;;5108236;28;20757;-66
2022/01/30 12:42:46;;;;;;;2.47;1.33;;;;;;;;;;5108047;28;20323;-65
2022/01/30 12:45:13;;;;;;;2.67;1.30;;;;;;;;;;5108137;28;20279;-65
2022/01/30 12:47:56;;;;;;;3.13;1.60;;;;;;;;;;5112810;28;20303;-65
2022/01/30 12:50:31;;;;;;;4.70;1.80;;;;;;;;;;5113516;28;20280;-65
2022/01/30 12:53:00;;;;;;;7.63;1.77;;;;;;;;;;5112926;28;20826;-65
2022/01/30 12:55:27;;;;;;;3.50;1.50;;;;;;;;;;5113025;28;20033;-65
2022/01/30 12:57:55;;;;;;;2.63;1.37;;;;;;;;;;5110638;28;20619;-66
2022/01/30 13:00:21;;;;;;;2.23;1.30;;;;;;;;;;5107454;28;20264;-66
2022/01/30 13:02:57;;;;;;;2.93;1.47;;;;;;;;;;5107597;28;20302;-66
2022/01/30 13:05:25;;;;;;;4.40;1.37;;;;;;;;;;5107148;28;20699;-65
2022/01/30 13:07:53;;;;;;;5.20;1.67;;;;;;;;;;5109206;28;20796;-65
2022/01/30 13:10:21;;;;;;;4.00;1.67;;;;;;;;;;5112468;28;20264;-65
2022/01/30 13:12:48;;;;;;;2.63;1.20;;;;;;;;;;5112753;28;20268;-66
2022/01/30 13:15:18;;;;;;;3.73;1.80;;;;;;;;;;5112945;28;20819;-66
2022/01/30 13:17:45;;;;;;;5.33;2.10;;;;;;;;;;5112937;28;20275;-65
2022/01/30 13:20:12;;;;;;;4.53;2.23;;;;;;;;;;5110002;28;20307;-66
2022/01/30 13:22:42;;;;;;;11.27;3.00;;;;;;;;;;5106940;28;20287;-66
2022/01/30 13:25:10;;;;;;;5.73;2.37;;;;;;;;;;5107439;28;20290;-66
2022/01/30 13:27:38;;;;;;;7.77;2.63;;;;;;;;;;5107024;28;20299;-65
2022/01/30 13:30:05;;;;;;;5.77;2.70;;;;;;;;;;5109193;28;20626;-65
2022/01/30 13:32:32;;;;;;;9.03;3.53;;;;;;;;;;5112702;28;20305;-65
2022/01/30 13:34:59;;;;;;;9.53;3.80;;;;;;;;;;5112806;28;20264;-66
2022/01/30 13:37:36;;;;;;;6.40;3.37;;;;;;;;;;5112013;28;20273;-65
2022/01/30 13:42:53;;;;;;;8.67;4.27;;;;;;;;;;5109188;28;20032;-66
2022/01/30 13:48:01;;;;;;;11.10;4.70;;;;;;;;;;5092511;28;20279;-66
2022/01/30 13:50:32;;;;;;;12.10;3.67;;;;;;;;;;5106522;28;21313;-66
2022/01/30 13:53:06;;;;;;;9.77;3.87;;;;;;;;;;5110540;28;20283;-66
2022/01/30 13:55:34;;;;;;;24.10;3.53;;;;;;;;;;5112356;28;20251;-66
2022/01/30 13:58:01;;;;;;;26.40;5.80;;;;;;;;;;5112309;28;20276;-66
2022/01/30 14:00:30;;;;;;;3.20;1.60;;;;;;;;;;5112126;28;20342;-66
2022/01/30 14:02:59;;;;;;;5.70;2.07;;;;;;;;;;5112305;28;20283;-66
2022/01/30 14:05:30;;;;;;;2.37;1.30;;;;;;;;;;5107934;28;20334;-67
2022/01/30 14:07:57;;;;;;;3.77;1.63;;;;;;;;;;5107201;28;20262;-66
2022/01/30 14:10:29;;;;;;;3.27;1.30;;;;;;;;;;5107251;28;20882;-66
2022/01/30 14:13:01;;;;;;;2.03;1.30;;;;;;;;;;5107330;28;20761;-66
2022/01/30 14:15:27;;;;;;;2.87;1.30;;;;;;;;;;5113004;28;20291;-66
2022/01/30 14:18:06;;;;;;;4.60;1.27;;;;;;;;;;5115932;28;20260;-67
2022/01/30 14:20:33;;;;;;;3.20;1.97;;;;;;;;;;5115661;28;20264;-67
2022/01/30 14:23:07;;;;;;;4.87;1.93;;;;;;;;;;5115878;28;20328;-67
2022/01/30 14:25:34;;;;;;;4.90;2.57;;;;;;;;;;5100178;28;20264;-66
2022/01/30 14:28:01;;;;;;;8.33;2.53;;;;;;;;;;5110630;28;20325;-67
2022/01/30 14:30:45;;;;;;;8.50;2.63;;;;;;;;;;5110708;28;20278;-67
2022/01/30 14:33:12;;;;;;;7.50;3.30;;;;;;;;;;5110454;28;20268;-67
2022/01/30 14:35:39;;;;;;;5.57;2.60;;;;;;;;;;5110856;28;20287;-67
2022/01/30 14:38:06;;;;;;;5.20;2.30;;;;;;;;;;5115847;28;20268;-67
2022/01/30 14:40:35;;;;;;;6.43;2.63;;;;;;;;;;5116112;28;20277;-66
2022/01/30 14:43:02;;;;;;;4.77;2.17;;;;;;;;;;5115419;28;20288;-67
2022/01/30 14:45:31;;;;;;;5.90;1.90;;;;;;;;;;5115653;28;20268;-67
2022/01/30 14:47:58;;;;;;;5.73;1.87;;;;;;;;;;5113959;28;20267;-68
2022/01/30 14:50:25;;;;;;;3.93;1.53;;;;;;;;;;5110034;28;20268;-67
2022/01/30 14:52:52;;;;;;;4.30;1.70;;;;;;;;;;5109717;28;20814;-68
2022/01/30 14:55:19;;;;;;;3.73;1.40;;;;;;;;;;5110321;28;20268;-68
2022/01/30 14:57:46;;;;;;;4.70;1.50;;;;;;;;;;5110048;28;20034;-67
2022/01/30 15:00:17;;;;;;;4.97;1.40;;;;;;;;;;5115754;28;20039;-68
2022/01/30 15:02:44;;;;;;;2.63;1.43;;;;;;;;;;5115211;28;20039;-68
2022/01/30 15:05:11;;;;;;;2.93;1.47;;;;;;;;;;5115343;28;21627;-68
2022/01/30 15:07:37;;;;;;;3.27;1.13;;;;;;;;;;5115306;28;20032;-68
2022/01/30 15:10:04;;;;;;;5.50;1.30;;;;;;;;;;5114030;28;20023;-68
2022/01/30 15:12:34;;;;;;;3.30;1.40;;;;;;;;;;5109515;28;20198;-68
2022/01/30 15:15:00;;;;;;;2.40;1.00;;;;;;;;;;5110035;28;20107;-68
2022/01/30 15:17:33;;;;;;;1.70;1.20;;;;;;;;;;5109656;28;20020;-68
2022/01/30 15:20:00;;;;;;;3.53;1.40;;;;;;;;;;5110016;28;20028;-68
2022/01/30 15:22:30;;;;;;;3.30;1.07;;;;;;;;;;5114971;28;20124;-68
2022/01/30 15:24:57;;;;;;;1.47;0.70;;;;;;;;;;5114411;28;20122;-68
2022/01/30 15:27:24;;;;;;;1.10;0.70;;;;;;;;;;5113753;28;20028;-68
2022/01/30 15:29:51;;;;;;;2.90;0.67;;;;;;;;;;5114958;28;20114;-68
2022/01/30 15:32:18;;;;;;;0.87;0.70;;;;;;;;;;5113515;28;20020;-69
2022/01/30 15:34:45;;;;;;;4.40;0.60;;;;;;;;;;5109366;28;20023;-68
2022/01/30 15:37:12;;;;;;;4.17;0.90;;;;;;;;;;5109443;28;20120;-69
2022/01/30 15:39:39;;;;;;;1.60;0.80;;;;;;;;;;5109573;28;20471;-68
2022/01/30 15:42:06;;;;;;;0.93;0.60;;;;;;;;;;5109914;28;20035;-68
2022/01/30 15:50:08;;;;;;;;;;;;;;;;;;5114934;28;20043;-68
2022/01/30 15:52:34;;;;;;;2.47;1.33;;;;;;;;;;5114198;28;19911;-68
2022/01/30 15:55:01;;;;;;;1.10;0.70;;;;;;;;;;5111759;28;20024;-69